Fowler, Indiana
Current Conditions -  °F | °C
As of 7:55 PM on Wednesday 17 Dec 2014 (Local Time) from KRZL Reporting Station
Overcast Overcast  
Wind Chill: 21°   Ceiling: 2700
Heat Index: 28°   Visibility: 10mi
Dew Point: 25°   Wind: 7mph
Humidity: 86%   Direction: 270°W
Pressure: 30.28"   Gusts: NA
Location:  40.62°N, 87.32°W
Report Text: KRZL 180055Z AUTO 27006KT 10SM OVC027 M02/M04 A3028 RMK AO2
Loading
Personal Weather Stations






























Interactive Weather Map New forecast layout! Learn more

10-Day Weather Forecast

Advertisements
Track Severe Weather on mobile